Sumach, Washington
Current Conditions -  °F | °C
As of 3:53 PM on Saturday 25 Oct 2014 (Local Time) from KYKM Reporting Station
Broken Clouds Broken Clouds  
Wind Chill: 56°   Ceiling: 8000
Heat Index: 56°   Visibility: 10mi
Dew Point: 48°   Wind: 7mph
Humidity: 75%   Direction: 120°ESE
Pressure: 29.49"   Gusts: NA
Location:  46.562°N, 120.899°W
Report Text: KYKM 252253Z 12006KT 10SM FEW046 FEW060 BKN080 13/09 A2949 RMK AO2 RAE42 SLP987 P0001 T01330089
Loading
Personal Weather Stations






























Interactive Weather Map
Tropical Storm Tracking
New forecast layout! Learn more

10-Day Weather Forecast

Advertisements
Track Severe Weather on mobile